Terminal Aerodrome Forecast
Issued by NWS

Home | Current Version | Previous Version | Text Only | Print | Product List | Glossary Off
Versions: 1 2 3 4 5 6 7 8 9 10 11 12 13

000
FTUS43 KMPX 181100
TAFAXN
TAF
KAXN 181120Z 1812/1912 36004KT P6SM OVC022
     FM182100 18005KT P6SM SCT025
     FM190800 18005KT P6SM BKN120=

USA.gov is the U.S. government's official web portal to all federal, state and local government web resources and services.